INFORMAÇÕES METEOROLÓGICAS
METAR FOR PAAK
ADDS - METARS form results

(2049 UTC 16 June 2019)
Data provider http://aviationweather.gov/metar/data/
 
METAR text: PAAK 161956Z AUTO 29014G20KT 9SM SCT015 09/07 A2972 RMK AO2 SLP067 T00890072
Conditions at: PAAK (ATKA , AK, US) observed 1956 UTC 16 June 2019
Temperature: 8.9°C (48°F)
Dewpoint: 7.2°C (45°F) [RH = 89%]
Pressure (altimeter): 29.72 inches Hg (1006.5 mb)
[Sea-level pressure: 1006.7 mb]
Winds: from the WNW (290 degrees) at 16 MPH (14 knots; 7.2 m/s)
gusting to 23 MPH (20 knots; 10.3 m/s)
Visibility: 9 miles (14 km)
Ceiling: at least 12,000 feet AGL
Clouds: scattered clouds at 1500 feet AGL
Weather: automated observation with no human augmentation;
there may or may not be significant weather present at this time

 MAPA DO AEROPORTO

 INFORMAÇÕES DA PISTA
Pista 16 Tamanho da pista 4500 ft Largura da pista 100 ft
Elevação da pista 56 ft Ranhura da pista 0 ft Proa da pista 165
Pista 34 Tamanho da pista 4500 ft Largura da pista 100 ft
Elevação da pista 46 ft Ranhura da pista 0 ft Proa da pista 345

 FREQUÊNCIAS DO AEROPORTO

 AUXÍLIOS DE NAVEGAÇÃO PRÓXIMOS AO AEROPORTO



Powered by Mercosul Lnhas Aereas